Impacts METAR Board
IDs:

KPIT - Pittsburgh Intl, PA, US

Updated at: 0800 UTC 16 Oct 2018
Potential Impact None Slight Moderate High
Time 15/20Z 15/21Z 15/22Z 15/23Z 16/00Z 16/01Z 16/02Z 16/03Z 16/04Z 16/05Z 16/06Z 16/07Z 16/08Z
Temp56 54 54 52 51 50 48 46 45 44 43 41 39
Dewpt55 53 52 49 46 44 43 40 39 39 38 37 36
Altim29.97 29.99 30.01 30.04 30.09 30.11 30.15 30.18 30.20 30.20 30.20 30.21 30.21
VIS7 7 10 10 10 10 10 10 10 10 10 10 10
CIG10 11 20 23 21 75 220 220 240 240 250 180 200
CoverOVCOVCOVCOVCOVCOVCOVCOVCOVCOVCBKNBKNBKN
FltCatMVFRMVFRMVFRMVFRMVFRVFRVFRVFRVFRVFRVFRVFRVFR
WX-RA-RA----------------------
WDir290290290280280290280290260270250270290
WSpd12 14 12 14 17 10 9 12 3 5 4 5 7
WGst20 -- -- 21 21 18 -- -- -- -- -- -- --
Raw hourly METARs
KPIT 151951Z 29012G20KT 7SM -RA BKN010 OVC017 13/13 A2997 RMK AO2 SLP157 P0003 T01330128
KPIT 152051Z 29014KT 7SM -RA BKN011 OVC020 12/12 A2999 RMK AO2 SLP162 P0001 60016 T01220117 51021
KPIT 152151Z 29012KT 10SM SCT011 BKN020 OVC036 12/11 A3001 RMK AO2 RAE08 SLP171 P0000 T01220111
KPIT 152251Z 28014G21KT 10SM FEW014 OVC023 11/09 A3004 RMK AO2 SLP178 T01110094
KPIT 152351Z 28017G21KT 10SM OVC021 11/08 A3009 RMK AO2 PRESRR SLP197 60016 T01060078 10167 20106 53034
KPIT 160051Z 29010G18KT 10SM FEW028 OVC075 10/07 A3011 RMK AO2 SLP203 T01000067
KPIT 160151Z 28009KT 10SM FEW028 SCT080 OVC220 09/06 A3015 RMK AO2 SLP218 T00890061
KPIT 160251Z 29012KT 10SM SCT025 SCT080 OVC220 08/04 A3018 RMK AO2 SLP228 T00780044 53029 $
KPIT 160351Z 26003KT 10SM SCT023 OVC240 07/04 A3020 RMK AO2 SLP234 T00720039 $
KPIT 160451Z 27005KT 10SM FEW028 SCT180 OVC240 07/04 A3020 RMK AO2 SLP235 T00670039 401780067 $
KPIT 160551Z 25004KT 10SM SCT180 BKN250 06/03 A3020 RMK AO2 SLP234 T00610033 10106 20061 50006 $
KPIT 160651Z 27005KT 10SM FEW050 BKN180 05/03 A3021 RMK AO2 SLP240 T00500028 $
KPIT 160751Z 29007KT 10SM FEW060 BKN200 04/02 A3021 RMK AO2 SLP240 T00390022 $



Page loaded:  08:50 UTC  |   01:50 AM Pacific  |   02:50 AM Mountain  |   03:50 AM Central  |   04:50 AM Eastern

 

ADVISORIES

FORECASTS

FORECASTS

OBSERVATIONS

USER TOOLS

ABOUT US